Time;durP1;ratioP1;P1;durP2;ratioP2;P2;SDS_P1;SDS_P2;PMS_P1;PMS_P2;Temp;Humidity;BMP_temperature;BMP_pressure;BME280_temperature;BME280_humidity;BME280_pressure;Samples;Min_cycle;Max_cycle;Signal;HPM_P1;HPM_P2
2023/01/19 00:01:43;;;;;;;33.47;20.13;;;2.80;99.90;;;2.59;82.37;98984.41;5086504;28;20229;-64
2023/01/19 00:04:11;;;;;;;27.80;18.00;;;2.80;99.90;;;2.58;82.28;98992.06;5093339;28;20253;-66
2023/01/19 00:06:41;;;;;;;25.33;17.70;;;2.80;99.90;;;2.62;82.21;99009.03;5094479;28;20204;-64
2023/01/19 00:09:09;;;;;;;32.10;19.53;;;2.80;99.90;;;2.62;82.30;99004.78;5072144;28;20237;-64
2023/01/19 00:11:38;;;;;;;30.10;19.60;;;2.80;99.90;;;2.64;82.25;99002.22;5095920;28;20208;-64
2023/01/19 00:14:07;;;;;;;30.97;19.33;;;2.80;99.90;;;2.65;82.10;99014.97;5096401;28;20201;-64
2023/01/19 00:16:36;;;;;;;30.17;19.70;;;2.80;99.90;;;2.67;81.99;99009.88;5095150;28;20204;-65
2023/01/19 00:19:04;;;;;;;30.20;20.00;;;2.80;99.90;;;2.66;81.58;99020.91;5096853;28;20236;-63
2023/01/19 00:21:33;;;;;;;29.57;20.13;;;2.80;99.90;;;2.69;82.06;99020.03;5094438;28;20212;-66
2023/01/19 00:24:03;;;;;;;39.80;24.20;;;2.80;99.90;;;2.72;82.39;99014.97;5096739;28;20204;-66
2023/01/19 00:26:31;;;;;;;33.77;21.00;;;2.90;99.90;;;2.74;82.41;99018.38;5084806;28;20209;-64
2023/01/19 00:29:00;;;;;;;31.13;20.07;;;2.90;99.90;;;2.72;81.48;99015.81;5090709;28;20201;-65
2023/01/19 00:31:28;;;;;;;32.37;21.17;;;2.90;99.90;;;2.72;82.21;99026.00;5093227;28;20205;-66
2023/01/19 00:33:57;;;;;;;33.40;21.63;;;2.90;99.90;;;2.77;81.58;99033.66;5096242;28;20303;-65
2023/01/19 00:36:26;;;;;;;33.57;20.90;;;2.90;99.90;;;2.79;81.23;99045.53;5095333;28;20683;-66
2023/01/19 00:38:54;;;;;;;33.47;21.50;;;2.90;99.90;;;2.81;81.67;99045.53;5095659;28;20228;-64
2023/01/19 00:44:07;;;;;;;32.97;21.47;;;2.90;99.90;;;2.84;81.23;99058.28;5085919;28;20258;-65
2023/01/19 00:46:35;;;;;;;35.87;22.27;;;3.00;99.90;;;2.84;81.18;99064.22;5078379;28;20205;-65
2023/01/19 00:49:04;;;;;;;32.10;20.60;;;3.00;99.90;;;2.84;80.69;99051.50;5096265;28;20212;-64
2023/01/19 00:51:32;;;;;;;35.57;22.53;;;3.00;99.90;;;2.86;81.60;99065.03;5097883;28;20643;-63
2023/01/19 00:54:03;;;;;;;32.30;21.43;;;3.00;99.90;;;2.86;81.77;99051.47;5096315;28;20209;-71
2023/01/19 00:56:34;;;;;;;32.90;20.97;;;3.00;99.90;;;2.84;81.29;99041.31;5089831;28;20205;-66
2023/01/19 00:59:04;;;;;;;37.37;22.17;;;3.00;99.90;;;2.87;81.13;99051.50;5083459;28;20243;-64
2023/01/19 01:01:32;;;;;;;34.00;21.80;;;3.00;99.90;;;2.88;81.23;99043.03;5077070;28;20217;-65
2023/01/19 01:04:13;;;;;;;31.73;20.63;;;3.00;99.90;;;2.92;80.82;99046.44;5084759;28;20307;-64
2023/01/19 01:06:41;;;;;;;34.97;22.67;;;3.10;99.90;;;2.97;81.60;99046.44;5092382;28;20223;-66
2023/01/19 01:09:11;;;;;;;33.60;21.37;;;3.10;99.90;;;3.01;81.36;99040.50;5092742;28;20197;-65
2023/01/19 01:11:42;;;;;;;35.23;22.53;;;3.10;99.90;;;3.03;81.09;99033.75;5092324;28;20244;-63
2023/01/19 01:14:12;;;;;;;34.73;21.70;;;3.10;99.90;;;3.06;80.35;99042.22;5091595;28;20205;-63
2023/01/19 01:16:41;;;;;;;34.20;21.77;;;3.10;99.90;;;3.08;81.03;99047.31;5091334;28;20204;-63
2023/01/19 01:19:10;;;;;;;33.67;21.93;;;3.10;99.90;;;3.09;80.72;99044.78;5092504;28;20233;-65
2023/01/19 01:21:38;;;;;;;33.63;21.63;;;3.10;99.90;;;3.11;80.04;99039.69;5091486;28;20219;-63
2023/01/19 01:24:08;;;;;;;33.50;21.03;;;3.20;99.90;;;3.09;79.46;99042.25;5091319;28;20197;-64
2023/01/19 01:26:37;;;;;;;34.30;23.23;;;3.10;99.90;;;3.10;80.16;99040.53;5072276;28;20208;-63
2023/01/19 01:29:07;;;;;;;36.50;21.67;;;3.20;99.90;;;3.11;80.15;99045.63;5089427;28;20235;-66
2023/01/19 01:31:35;;;;;;;29.67;19.97;;;3.20;99.90;;;3.12;80.35;99036.28;5090361;28;20235;-63
2023/01/19 01:34:04;;;;;;;33.80;21.37;;;3.20;99.90;;;3.15;80.55;99034.59;5091157;28;20200;-62
2023/01/19 01:36:32;;;;;;;30.43;20.73;;;3.20;99.90;;;3.17;80.79;99032.06;5092211;28;20262;-64
2023/01/19 01:39:01;;;;;;;32.27;20.53;;;3.30;99.90;;;3.21;80.08;99033.78;5082095;28;20740;-62
2023/01/19 01:41:30;;;;;;;33.17;22.97;;;3.30;99.90;;;3.20;79.82;99029.50;5090981;28;20291;-65
2023/01/19 01:44:00;;;;;;;32.77;21.30;;;3.30;99.90;;;3.21;80.27;99022.75;5092605;28;20243;-65
2023/01/19 01:46:32;;;;;;;34.20;20.57;;;3.30;99.90;;;3.23;79.49;99026.97;5089965;28;20289;-63
2023/01/19 01:49:07;;;;;;;33.93;21.50;;;3.30;99.90;;;3.25;79.56;99021.91;5089659;28;20255;-64
2023/01/19 01:51:41;;;;;;;33.17;21.07;;;3.30;99.90;;;3.27;79.72;99026.13;5090160;28;20403;-63
2023/01/19 01:54:17;;;;;;;31.10;19.73;;;3.30;99.90;;;3.28;79.51;99021.91;5092407;28;20285;-65
2023/01/19 01:56:49;;;;;;;32.87;22.03;;;3.30;99.90;;;3.26;79.39;99014.25;5090850;28;20253;-64
2023/01/19 01:59:25;;;;;;;33.10;21.63;;;3.30;99.90;;;3.26;79.68;99015.94;5087319;28;20274;-65
2023/01/19 02:04:49;;;;;;;32.30;20.47;;;3.30;99.90;;;3.24;79.75;99015.97;5082986;28;20201;-65
2023/01/19 02:15:44;;;;;;;29.80;20.60;;;3.30;99.90;;;3.27;78.66;99022.72;5088057;28;20215;-65
2023/01/19 02:18:14;;;;;;;31.30;20.60;;;3.30;99.90;;;3.20;78.84;99019.31;5079076;28;20791;-65
2023/01/19 02:20:53;;;;;;;31.47;20.90;;;3.30;99.90;;;3.14;79.68;99019.34;5088838;28;20227;-65
2023/01/19 02:23:36;;;;;;;29.33;19.50;;;3.20;99.90;;;3.14;79.12;99024.44;5089128;28;20499;-64
2023/01/19 02:26:08;;;;;;;30.03;19.40;;;3.20;99.90;;;3.14;78.71;99019.34;5091186;28;20208;-65
2023/01/19 02:28:41;;;;;;;30.77;19.90;;;3.20;99.90;;;3.14;79.20;99020.19;5091283;28;20238;-63
2023/01/19 02:31:09;;;;;;;28.40;19.67;;;3.20;99.90;;;3.14;79.01;99012.53;5088703;28;20227;-65
2023/01/19 02:33:39;;;;;;;30.73;19.50;;;3.20;99.90;;;3.17;79.69;99019.34;5089542;28;20817;-64
2023/01/19 02:36:10;;;;;;;29.67;19.30;;;3.20;99.90;;;3.16;78.70;99022.72;5076535;28;20924;-64
2023/01/19 02:38:43;;;;;;;32.00;20.57;;;3.20;99.90;;;3.12;79.22;99016.78;5077515;28;20250;-63
2023/01/19 02:41:17;;;;;;;29.37;19.67;;;3.20;99.90;;;3.14;78.77;99019.34;5089985;28;20273;-63
2023/01/19 02:43:47;;;;;;;33.93;20.93;;;3.20;99.90;;;3.12;78.78;99026.94;5055623;28;20201;-63
2023/01/19 02:46:16;;;;;;;32.83;20.80;;;3.20;99.90;;;3.11;78.45;99025.25;5087417;28;20213;-66
2023/01/19 02:48:45;;;;;;;31.57;20.60;;;3.10;99.90;;;3.06;78.61;99021.03;5086052;28;20197;-64
2023/01/19 02:51:18;;;;;;;31.87;20.07;;;3.20;99.90;;;3.02;79.15;99019.28;5087615;28;23898;-64
2023/01/19 02:54:33;;;;;;;31.43;20.43;;;3.10;99.90;;;3.00;78.77;99023.53;5091244;28;20197;-66
2023/01/19 02:57:23;;;;;;;32.43;20.87;;;3.10;99.90;;;3.01;79.62;99027.78;5084655;28;20212;-63
2023/01/19 03:00:14;;;;;;;32.70;20.67;;;3.10;99.90;;;3.05;79.08;99026.94;5091112;28;20228;-64
2023/01/19 03:02:58;;;;;;;33.57;20.43;;;3.10;99.90;;;3.08;79.25;99027.78;5082349;28;20205;-63
2023/01/19 03:05:52;;;;;;;31.17;20.57;;;3.10;99.90;;;3.13;79.19;99025.28;5087665;28;20201;-64
2023/01/19 03:08:34;;;;;;;32.87;20.80;;;3.20;99.90;;;3.17;79.49;99023.56;5088533;28;20197;-64
2023/01/19 03:11:06;;;;;;;31.50;20.47;;;3.20;99.90;;;3.20;79.49;99019.31;5091307;28;20205;-64
2023/01/19 03:13:44;;;;;;;32.17;20.90;;;3.20;99.90;;;3.22;79.49;99017.66;5087319;28;20246;-63
2023/01/19 03:16:20;;;;;;;32.53;19.57;;;3.30;99.90;;;3.23;79.23;99014.25;5088303;28;20756;-63
2023/01/19 03:18:55;;;;;;;31.13;20.90;;;3.30;99.90;;;3.25;78.74;99006.63;5062816;28;20330;-64
2023/01/19 03:21:27;;;;;;;31.17;21.10;;;3.30;99.90;;;3.23;78.56;99010.84;5089837;28;20204;-63
2023/01/19 03:24:01;;;;;;;33.97;21.67;;;3.30;99.90;;;3.24;78.74;99018.50;5086806;28;20205;-64
2023/01/19 03:26:38;;;;;;;33.13;20.23;;;3.30;99.90;;;3.25;79.29;99034.63;5073511;28;20200;-63
2023/01/19 03:29:12;;;;;;;31.97;20.47;;;3.30;99.90;;;3.26;79.11;99038.88;5090103;28;20196;-65
2023/01/19 03:31:44;;;;;;;30.93;20.17;;;3.30;99.90;;;3.27;79.69;99041.41;5082393;28;20208;-62
2023/01/19 03:34:15;;;;;;;36.70;21.53;;;3.30;99.90;;;3.26;78.88;99044.81;5074345;28;20216;-64
2023/01/19 03:36:51;;;;;;;33.20;20.83;;;3.30;99.90;;;3.28;79.23;99042.28;5089514;28;20265;-65
2023/01/19 03:39:23;;;;;;;32.60;20.60;;;3.30;99.90;;;3.27;78.97;99046.50;5089554;28;20230;-64
2023/01/19 03:41:57;;;;;;;31.90;20.10;;;3.30;99.90;;;3.24;79.27;99038.88;5078864;28;20658;-66
2023/01/19 03:44:29;;;;;;;29.93;20.10;;;3.30;99.90;;;3.25;78.80;99048.19;5082700;28;20228;-64
2023/01/19 03:46:59;;;;;;;30.60;20.00;;;3.30;99.90;;;3.25;79.03;99053.28;5089512;28;20239;-65
2023/01/19 03:49:30;;;;;;;31.87;20.37;;;3.30;99.90;;;3.24;79.16;99061.78;5090791;28;20641;-65
2023/01/19 03:51:59;;;;;;;31.30;20.30;;;3.30;99.90;;;3.21;78.99;99061.78;5090058;28;20193;-64
2023/01/19 03:54:28;;;;;;;30.60;19.87;;;3.30;99.90;;;3.18;78.79;99055.81;5085534;28;20205;-64
2023/01/19 03:56:58;;;;;;;31.67;19.50;;;3.30;99.90;;;3.21;79.36;99071.97;5089266;28;20232;-63
2023/01/19 03:59:26;;;;;;;31.97;19.80;;;3.30;99.90;;;3.17;79.13;99075.34;5090761;28;20297;-65
2023/01/19 04:01:55;;;;;;;31.47;19.83;;;3.20;99.90;;;3.15;78.84;99071.94;5088497;28;20200;-62
2023/01/19 04:04:24;;;;;;;32.60;19.97;;;3.20;99.90;;;3.11;78.87;99075.31;5083356;28;20603;-62
2023/01/19 04:06:52;;;;;;;34.07;20.97;;;3.20;99.90;;;3.05;79.54;99081.22;5087973;28;20546;-63
2023/01/19 04:09:21;;;;;;;31.77;19.83;;;3.20;99.90;;;3.01;79.25;99088.84;5081856;28;20710;-64
2023/01/19 04:11:50;;;;;;;33.47;21.60;;;3.10;99.90;;;2.99;79.86;99093.94;5089136;28;20209;-64
2023/01/19 04:14:20;;;;;;;33.77;22.03;;;3.10;99.90;;;2.94;79.17;99082.88;5080709;28;20209;-67
2023/01/19 04:16:49;;;;;;;32.33;21.53;;;3.10;99.90;;;2.90;79.88;99083.72;5090326;28;20577;-62
2023/01/19 04:19:17;;;;;;;30.73;19.93;;;3.10;99.90;;;2.88;80.14;99085.44;5089957;28;20256;-63
2023/01/19 04:21:47;;;;;;;33.67;22.20;;;3.10;99.90;;;2.85;79.38;99088.78;5089675;28;20629;-65
2023/01/19 04:24:16;;;;;;;31.67;20.63;;;3.00;99.90;;;2.84;79.62;99102.38;5081117;28;20208;-63
2023/01/19 04:26:44;;;;;;;31.87;20.63;;;3.00;99.90;;;2.79;80.10;99098.94;5076814;28;20265;-62
2023/01/19 04:29:13;;;;;;;32.97;20.60;;;3.00;99.90;;;2.76;80.46;99104.03;5089476;28;20204;-63
2023/01/19 04:31:43;;;;;;;31.30;20.30;;;3.00;99.90;;;2.76;81.13;99103.16;5088004;28;20208;-63
2023/01/19 04:34:11;;;;;;;30.50;19.67;;;3.00;99.90;;;2.76;80.58;99106.56;5093888;28;20252;-65
2023/01/19 04:36:40;;;;;;;33.97;21.33;;;3.00;99.90;;;2.75;79.91;99107.41;5091174;28;20609;-65
2023/01/19 04:39:09;;;;;;;29.20;19.50;;;3.00;99.90;;;2.78;79.88;99122.69;5093403;28;20299;-64
2023/01/19 04:41:37;;;;;;;28.93;18.40;;;3.00;99.90;;;2.74;80.40;99109.94;5091102;28;20368;-64
2023/01/19 04:44:06;;;;;;;28.47;18.70;;;2.90;99.90;;;2.69;80.22;99112.47;5085659;28;20205;-64
2023/01/19 04:46:34;;;;;;;27.80;17.93;;;3.00;99.90;;;2.66;80.28;99115.84;5076939;28;20197;-64
2023/01/19 04:49:04;;;;;;;28.37;17.40;;;2.90;99.90;;;2.64;80.48;99125.16;5092990;28;20557;-65
2023/01/19 04:51:33;;;;;;;29.97;19.40;;;2.90;99.90;;;2.60;80.17;99127.66;5093492;28;20270;-66
2023/01/19 04:54:01;;;;;;;33.03;20.03;;;2.80;99.90;;;2.60;81.02;99125.97;5093065;28;20244;-66
2023/01/19 04:56:30;;;;;;;29.07;19.03;;;2.80;99.90;;;2.57;80.08;99132.72;5086036;28;20211;-65
2023/01/19 04:58:58;;;;;;;28.53;18.87;;;2.80;99.90;;;2.60;81.37;99140.38;5091964;28;20221;-64
2023/01/19 05:01:27;;;;;;;29.90;19.50;;;2.80;99.90;;;2.57;80.82;99135.28;5089997;28;20229;-67
2023/01/19 05:03:59;;;;;;;28.23;19.20;;;2.80;99.90;;;2.59;80.95;99136.16;5089162;28;20633;-66
2023/01/19 05:06:29;;;;;;;30.47;18.03;;;2.80;99.90;;;2.60;80.51;99138.69;5086985;28;20246;-65
2023/01/19 05:08:58;;;;;;;28.30;17.90;;;2.80;99.90;;;2.58;80.83;99139.53;5084163;28;20604;-64
2023/01/19 05:11:29;;;;;;;28.37;18.20;;;2.80;99.90;;;2.57;80.67;99145.44;5085264;28;20205;-65
2023/01/19 05:13:57;;;;;;;31.40;18.27;;;2.80;99.90;;;2.58;81.31;99147.19;5089918;28;20310;-65
2023/01/19 05:16:26;;;;;;;27.63;17.33;;;2.80;99.90;;;2.56;81.18;99159.84;5093056;28;20218;-65
2023/01/19 05:18:54;;;;;;;28.40;17.23;;;2.80;99.90;;;2.55;80.87;99164.94;5093091;28;20323;-66
2023/01/19 05:21:22;;;;;;;25.47;16.80;;;2.80;99.90;;;2.52;80.12;99160.69;5092976;28;20248;-66
2023/01/19 05:23:52;;;;;;;26.27;16.43;;;2.80;99.90;;;2.49;80.21;99157.28;5092307;28;20649;-68
2023/01/19 05:26:21;;;;;;;22.57;14.70;;;2.80;99.90;;;2.46;80.51;99147.91;5091204;28;20204;-66
2023/01/19 05:28:49;;;;;;;25.10;16.30;;;2.70;99.90;;;2.45;80.85;99145.38;5091592;28;20216;-66
2023/01/19 05:31:18;;;;;;;27.03;17.93;;;2.70;99.90;;;2.44;80.37;99141.16;5091467;28;20201;-67
2023/01/19 05:33:47;;;;;;;24.70;16.23;;;2.70;99.90;;;2.44;80.82;99151.31;5092182;28;20200;-65
2023/01/19 05:36:15;;;;;;;31.20;17.77;;;2.70;99.90;;;2.44;80.73;99153.84;5088611;28;20205;-64
2023/01/19 05:38:43;;;;;;;25.40;15.60;;;2.70;99.90;;;2.42;81.07;99158.91;5091811;28;20205;-66
2023/01/19 05:41:14;;;;;;;28.10;17.03;;;2.70;99.90;;;2.45;81.05;99168.25;5089828;28;20224;-64
2023/01/19 05:43:42;;;;;;;27.93;16.93;;;2.80;99.90;;;2.45;81.03;99166.56;5090483;28;20201;-64
2023/01/19 05:46:10;;;;;;;26.83;17.97;;;2.70;99.90;;;2.44;81.66;99172.50;5089533;28;20254;-64
2023/01/19 05:48:39;;;;;;;24.00;16.37;;;2.70;99.90;;;2.45;80.97;99166.56;5085613;28;20301;-65
2023/01/19 05:51:08;;;;;;;25.17;16.27;;;2.70;99.90;;;2.45;80.53;99164.03;5087082;28;20258;-64
2023/01/19 05:53:36;;;;;;;26.40;16.20;;;2.70;99.90;;;2.46;80.62;99175.03;5089248;28;20649;-64
2023/01/19 05:56:08;;;;;;;23.40;14.97;;;2.70;99.90;;;2.42;81.10;99159.75;5082783;28;20205;-66
2023/01/19 05:58:39;;;;;;;26.77;17.07;;;2.70;99.90;;;2.42;80.67;99164.00;5088377;28;20209;-63
2023/01/19 06:01:09;;;;;;;26.77;15.73;;;2.70;99.90;;;2.44;80.74;99164.03;5079241;28;20228;-64
2023/01/19 06:03:38;;;;;;;24.87;16.83;;;2.70;99.90;;;2.45;81.65;99174.19;5083307;28;20276;-63
2023/01/19 06:06:07;;;;;;;22.03;15.23;;;2.70;99.90;;;2.46;80.64;99193.69;5089303;28;20626;-66
2023/01/19 06:08:36;;;;;;;21.87;15.43;;;2.70;99.90;;;2.46;80.92;99190.28;5088698;28;20244;-66
2023/01/19 06:11:07;;;;;;;24.77;15.83;;;2.70;99.90;;;2.47;80.61;99192.00;5088892;28;20215;-64
2023/01/19 06:13:38;;;;;;;20.63;14.70;;;2.70;99.90;;;2.46;81.05;99180.13;5084215;28;20590;-63
2023/01/19 06:16:10;;;;;;;24.53;15.90;;;2.70;99.90;;;2.46;81.24;99190.28;5080355;28;20281;-66
2023/01/19 06:18:39;;;;;;;20.43;15.03;;;2.70;99.90;;;2.47;81.26;99197.94;5090226;28;20232;-65
2023/01/19 06:21:11;;;;;;;24.30;14.87;;;2.70;99.90;;;2.47;81.12;99205.56;5087171;28;20235;-64
2023/01/19 06:23:41;;;;;;;24.13;14.53;;;2.70;99.90;;;2.50;81.52;99225.06;5090604;28;20204;-66
2023/01/19 06:26:10;;;;;;;25.83;15.70;;;2.70;99.90;;;2.50;80.60;99237.78;5088047;28;20209;-66
2023/01/19 06:28:40;;;;;;;21.73;14.87;;;2.70;99.90;;;2.50;81.35;99238.63;5088270;28;20208;-65
2023/01/19 06:31:08;;;;;;;24.77;16.07;;;2.80;99.90;;;2.51;81.48;99249.69;5088390;28;20564;-65
2023/01/19 06:33:37;;;;;;;25.10;15.33;;;2.70;99.90;;;2.50;81.31;99251.34;5089180;28;20204;-67
2023/01/19 06:36:06;;;;;;;24.33;14.40;;;2.70;99.90;;;2.53;80.79;99253.06;5082150;28;20204;-65
2023/01/19 06:38:35;;;;;;;22.47;15.13;;;2.80;99.90;;;2.56;81.37;99251.41;5067514;28;20201;-65
2023/01/19 06:41:03;;;;;;;23.07;14.97;;;2.80;99.90;;;2.59;81.41;99256.50;5088782;28;20220;-70
2023/01/19 06:43:32;;;;;;;22.67;15.07;;;2.90;99.90;;;2.62;80.88;99266.72;5094763;28;20204;-69
2023/01/19 06:46:02;;;;;;;21.37;14.67;;;2.90;99.90;;;2.64;81.10;99269.25;5093131;28;20200;-69
2023/01/19 06:48:31;;;;;;;20.57;13.90;;;2.90;99.90;;;2.69;79.92;99271.84;5091996;28;20215;-65
2023/01/19 06:50:59;;;;;;;21.13;14.10;;;2.90;99.90;;;2.71;80.64;99273.56;5090486;28;20201;-68
2023/01/19 06:53:29;;;;;;;22.00;14.23;;;2.90;99.90;;;2.75;79.85;99282.91;5090591;28;20258;-67
2023/01/19 06:56:01;;;;;;;23.13;14.63;;;2.90;99.90;;;2.78;80.41;99272.75;5086515;28;20262;-66
2023/01/19 06:58:33;;;;;;;23.00;13.93;;;3.00;99.90;;;2.82;79.82;99277.03;5086148;28;20192;-66
2023/01/19 07:01:05;;;;;;;22.63;15.57;;;3.00;99.90;;;2.84;79.76;99270.28;5082251;28;20688;-67
2023/01/19 07:03:35;;;;;;;20.83;13.77;;;3.00;99.90;;;2.86;79.82;99278.75;5084010;28;20200;-69
2023/01/19 07:06:06;;;;;;;22.60;13.07;;;3.00;99.90;;;2.85;79.99;99266.88;5089026;28;20669;-69
2023/01/19 07:08:36;;;;;;;19.27;12.60;;;3.10;99.90;;;2.82;79.68;99255.81;5088856;28;20204;-68
2023/01/19 07:11:07;;;;;;;20.53;12.63;;;3.00;99.90;;;2.79;79.39;99254.09;5085817;28;20239;-67
2023/01/19 07:13:55;;;;;;;20.03;13.43;;;3.00;99.90;;;2.80;79.47;99258.38;5085559;28;20626;-66
2023/01/19 07:16:25;;;;;;;18.97;12.47;;;3.10;99.90;;;2.78;80.06;99249.03;5088789;28;20208;-69
2023/01/19 07:18:54;;;;;;;18.70;11.80;;;3.00;99.90;;;2.78;79.30;99249.03;5088455;28;20312;-66
2023/01/19 07:21:23;;;;;;;22.20;12.80;;;3.00;99.90;;;2.76;79.82;99251.56;5081842;28;20232;-66
2023/01/19 07:23:53;;;;;;;20.63;12.47;;;3.00;99.90;;;2.76;79.57;99251.56;5079365;28;20205;-68
2023/01/19 07:26:24;;;;;;;21.07;13.37;;;3.00;99.90;;;2.81;79.02;99261.75;5089201;28;20278;-67
2023/01/19 07:28:52;;;;;;;20.80;13.00;;;3.00;99.90;;;2.83;79.06;99263.47;5083601;28;20208;-66
2023/01/19 07:31:21;;;;;;;16.50;12.30;;;3.10;99.90;;;2.84;79.71;99254.16;5083442;28;20207;-65
2023/01/19 07:33:51;;;;;;;19.30;12.83;;;3.10;99.90;;;2.84;79.57;99249.91;5088746;28;20193;-65
2023/01/19 07:36:19;;;;;;;18.50;11.87;;;3.10;99.90;;;2.84;79.54;99255.00;5082292;28;20262;-67
2023/01/19 07:38:48;;;;;;;17.47;10.27;;;3.10;99.90;;;2.86;79.32;99258.41;5085969;28;20247;-67
2023/01/19 07:41:17;;;;;;;18.13;10.87;;;3.00;99.90;;;2.89;79.33;99260.97;5089598;28;20282;-69
2023/01/19 07:43:45;;;;;;;19.27;11.23;;;3.10;99.90;;;2.90;78.80;99259.28;5072229;28;20204;-68
2023/01/19 07:46:13;;;;;;;19.23;11.10;;;3.10;99.90;;;2.90;78.30;99262.66;5076412;28;20660;-66
2023/01/19 07:48:43;;;;;;;16.77;11.37;;;3.10;99.90;;;2.88;78.57;99255.88;5078093;28;20216;-66
2023/01/19 07:51:16;;;;;;;17.10;10.40;;;3.10;99.90;;;2.86;78.63;99273.66;5080720;28;20595;-67
2023/01/19 07:53:45;;;;;;;14.07;9.63;;;3.10;99.90;;;2.84;78.64;99280.44;5083466;28;20197;-66
2023/01/19 07:56:14;;;;;;;15.63;9.60;;;3.10;99.90;;;2.81;78.21;99282.97;5080431;28;20205;-66
2023/01/19 07:58:42;;;;;;;13.63;10.13;;;3.10;99.90;;;2.83;78.18;99288.06;5085005;28;20232;-68
2023/01/19 08:01:13;;;;;;;18.70;11.33;;;3.10;99.90;;;2.83;78.57;99291.44;5084130;28;20237;-70
2023/01/19 08:03:41;;;;;;;15.40;11.00;;;3.10;99.90;;;2.83;78.56;99293.13;5085521;28;20254;-69
2023/01/19 08:06:22;;;;;;;17.07;12.10;;;3.10;99.90;;;2.84;78.21;99305.03;5089475;28;20269;-70
2023/01/19 08:08:51;;;;;;;17.87;12.37;;;3.10;99.90;;;2.86;78.94;99303.34;5086409;28;20205;-70
2023/01/19 08:11:19;;;;;;;19.37;12.37;;;3.10;99.90;;;2.89;78.93;99296.59;5091685;28;20247;-69
2023/01/19 08:13:48;;;;;;;18.93;11.50;;;3.10;99.90;;;2.94;78.41;99290.69;5094670;28;20653;-68
2023/01/19 08:16:17;;;;;;;17.93;12.33;;;3.20;99.90;;;2.94;79.22;99291.53;5087377;28;20497;-69
2023/01/19 08:18:45;;;;;;;19.93;12.00;;;3.10;99.90;;;2.89;78.64;99286.41;5088477;28;20278;-69
2023/01/19 08:21:15;;;;;;;16.23;11.53;;;3.20;99.90;;;2.86;78.56;99277.91;5096310;28;20554;-69
2023/01/19 08:23:44;;;;;;;15.63;11.07;;;3.10;99.90;;;2.83;78.59;99270.25;5098143;28;20702;-69
2023/01/19 08:26:26;;;;;;;17.10;11.60;;;3.10;99.90;;;2.80;78.77;99281.28;5098513;28;20261;-69
2023/01/19 08:28:56;;;;;;;19.40;12.10;;;3.10;99.90;;;2.78;79.30;99277.84;5091594;28;20261;-69
2023/01/19 08:31:25;;;;;;;20.73;13.07;;;3.10;99.90;;;2.76;79.36;99269.38;5090539;28;20208;-69
2023/01/19 08:33:54;;;;;;;19.20;12.53;;;3.10;99.90;;;2.78;78.85;99260.03;5086564;28;20642;-70
2023/01/19 08:36:24;;;;;;;16.27;10.90;;;3.10;99.90;;;2.81;79.51;99262.63;5088213;28;20273;-70
2023/01/19 08:38:53;;;;;;;18.30;11.80;;;3.10;99.90;;;2.80;78.93;99263.47;5093682;28;20513;-67
2023/01/19 08:41:21;;;;;;;18.13;11.43;;;3.10;99.90;;;2.84;79.42;99272.81;5090670;28;20212;-69
2023/01/19 08:43:50;;;;;;;18.10;11.23;;;3.10;99.90;;;2.85;78.37;99282.16;5094210;28;20197;-70
2023/01/19 08:46:20;;;;;;;17.37;11.50;;;3.10;99.90;;;2.84;78.58;99272.81;5093663;28;20212;-69
2023/01/19 08:48:49;;;;;;;16.33;11.03;;;3.10;99.90;;;2.84;79.17;99272.81;5094030;28;20224;-68
2023/01/19 08:51:18;;;;;;;17.67;11.50;;;3.10;99.90;;;2.87;78.25;99267.75;5094286;28;20253;-69
2023/01/19 08:53:48;;;;;;;16.70;11.47;;;3.10;99.90;;;2.86;78.75;99272.81;5094420;28;20472;-68
2023/01/19 08:56:17;;;;;;;19.33;12.57;;;3.10;99.90;;;2.86;78.25;99294.00;5092985;28;20249;-70
2023/01/19 08:58:47;;;;;;;17.67;12.17;;;3.10;99.90;;;2.86;79.44;99288.94;5094233;28;20205;-70
2023/01/19 09:01:35;;;;;;;19.47;12.13;;;3.20;99.90;;;2.90;79.24;99302.53;5093275;28;20311;-69
2023/01/19 09:04:05;;;;;;;18.70;12.67;;;3.20;99.90;;;2.88;78.82;99304.22;5095115;28;20201;-68
2023/01/19 09:06:34;;;;;;;18.83;12.90;;;3.20;99.90;;;2.88;78.66;99311.84;5095692;28;20227;-69
2023/01/19 09:09:04;;;;;;;18.57;12.17;;;3.20;99.90;;;2.86;78.73;99305.88;5095288;28;20197;-69
2023/01/19 09:11:33;;;;;;;20.23;13.60;;;3.20;99.90;;;2.85;79.16;99291.47;5087598;28;20204;-68
2023/01/19 09:14:04;;;;;;;20.87;13.17;;;3.20;99.90;;;2.84;78.78;99297.41;5094768;28;20205;-68
2023/01/19 09:16:33;;;;;;;19.53;13.50;;;3.20;99.90;;;2.86;79.70;99301.66;5092665;28;20205;-70
2023/01/19 09:19:01;;;;;;;17.60;12.47;;;3.20;99.90;;;2.82;78.83;99296.53;5088766;28;20255;-68
2023/01/19 09:21:30;;;;;;;18.67;12.37;;;3.10;99.90;;;2.77;78.84;99298.19;5097285;28;20205;-70
2023/01/19 09:23:58;;;;;;;20.60;12.40;;;3.10;99.90;;;2.71;79.02;99296.44;5092968;28;20235;-70
2023/01/19 09:26:28;;;;;;;19.27;12.47;;;3.00;99.90;;;2.72;79.26;99310.00;5091557;28;20201;-69
2023/01/19 09:29:00;;;;;;;18.20;12.57;;;3.00;99.90;;;2.72;80.18;99315.09;5092694;28;20213;-70
2023/01/19 09:31:28;;;;;;;19.83;12.73;;;3.00;99.90;;;2.77;79.81;99318.56;5095354;28;20656;-72
2023/01/19 09:33:57;;;;;;;21.10;13.80;;;3.10;99.90;;;2.79;79.81;99321.94;5097136;28;20200;-70
2023/01/19 09:36:25;;;;;;;17.93;11.97;;;3.10;99.90;;;2.81;80.08;99321.13;5092711;28;20234;-70
2023/01/19 09:38:54;;;;;;;18.57;11.97;;;3.10;99.90;;;2.82;78.92;99316.88;5094172;28;20231;-68
2023/01/19 09:41:24;;;;;;;16.57;11.40;;;3.10;99.90;;;2.78;78.97;99316.00;5089575;28;20676;-69
2023/01/19 09:43:59;;;;;;;18.20;12.50;;;3.10;99.90;;;2.76;79.12;99322.78;5081463;28;20256;-69
2023/01/19 09:46:35;;;;;;;20.80;12.33;;;3.00;99.90;;;2.75;78.98;99321.06;5092872;28;20212;-69
2023/01/19 09:49:10;;;;;;;19.97;12.73;;;3.10;99.90;;;2.76;79.36;99317.72;5092441;28;20197;-68
2023/01/19 09:51:44;;;;;;;20.40;13.63;;;3.10;99.90;;;2.76;79.57;99315.16;5090385;28;20204;-70
2023/01/19 09:54:15;;;;;;;24.37;13.40;;;3.10;99.90;;;2.79;79.15;99315.16;5091555;28;20218;-67
2023/01/19 09:56:45;;;;;;;18.07;13.10;;;3.10;99.90;;;2.80;78.74;99309.25;5094044;28;20208;-68
2023/01/19 09:59:25;;;;;;;18.77;12.83;;;3.10;99.90;;;2.81;78.87;99295.69;5094212;28;20591;-68
2023/01/19 10:02:14;;;;;;;22.63;13.70;;;3.10;99.90;;;2.82;78.91;99292.28;5090685;28;20621;-70
2023/01/19 10:04:49;;;;;;;22.10;14.40;;;3.10;99.90;;;2.85;79.33;99307.59;5089735;28;20217;-70
2023/01/19 10:07:32;;;;;;;22.23;14.30;;;3.10;99.90;;;2.85;79.01;99294.88;5093979;28;20200;-69
2023/01/19 10:10:15;;;;;;;23.30;15.67;;;3.10;99.90;;;2.84;79.00;99295.72;5092726;28;20200;-68
2023/01/19 10:13:04;;;;;;;24.07;16.13;;;3.10;99.90;;;2.86;78.92;99301.66;5094296;28;20197;-69
2023/01/19 10:15:46;;;;;;;25.40;16.63;;;3.20;99.90;;;2.84;79.58;99299.94;5092116;28;20205;-69
2023/01/19 10:18:20;;;;;;;26.73;17.67;;;3.10;99.90;;;2.83;79.85;99299.06;5078185;28;20185;-67
2023/01/19 10:20:53;;;;;;;27.20;17.43;;;3.10;99.90;;;2.82;79.27;99301.63;5094409;28;20201;-69
2023/01/19 10:23:41;;;;;;;29.27;17.97;;;3.10;99.90;;;2.83;79.44;99299.06;5092689;28;20220;-70
2023/01/19 10:26:16;;;;;;;26.60;17.27;;;3.10;99.90;;;2.85;79.55;99282.16;5093265;28;20276;-70
2023/01/19 10:28:49;;;;;;;26.93;17.50;;;3.10;99.90;;;2.83;80.21;99282.97;5093670;28;20215;-68
2023/01/19 10:31:23;;;;;;;31.43;18.93;;;3.10;99.90;;;2.84;79.59;99289.78;5087795;28;20204;-69
2023/01/19 10:33:53;;;;;;;30.97;18.10;;;3.10;99.90;;;2.84;80.46;99270.28;5094549;28;20290;-68
2023/01/19 10:36:27;;;;;;;28.90;18.17;;;3.10;99.90;;;2.84;80.38;99280.44;5091732;28;20209;-70
2023/01/19 10:38:56;;;;;;;29.43;18.23;;;3.10;99.90;;;2.83;80.38;99281.25;5089989;28;20265;-70
2023/01/19 10:41:31;;;;;;;26.23;17.60;;;3.10;99.90;;;2.79;80.48;99274.44;5092367;28;20204;-70
2023/01/19 10:44:04;;;;;;;26.80;16.63;;;3.10;99.90;;;2.78;80.40;99271.91;5092306;28;20216;-69
2023/01/19 10:46:42;;;;;;;26.30;16.60;;;3.10;99.90;;;2.75;80.31;99267.66;5088291;28;20229;-69
2023/01/19 10:49:26;;;;;;;24.93;16.10;;;3.00;99.90;;;2.71;80.12;99263.38;5088504;28;20217;-70
2023/01/19 10:51:56;;;;;;;26.33;16.13;;;3.00;99.90;;;2.72;80.38;99267.63;5083648;28;20196;-69